sensor_id;sensor_type;location;lat;lon;timestamp;P1;durP1;ratioP1;P2;durP2;ratioP2
5774;SDS011;2913;51.120;6.772;2023-08-06T00:01:47;1031.72;;;316.15;;
5774;SDS011;2913;51.120;6.772;2023-08-06T00:04:15;1105.00;;;339.40;;
5774;SDS011;2913;51.120;6.772;2023-08-06T00:06:40;1106.75;;;340.10;;
5774;SDS011;2913;51.120;6.772;2023-08-06T00:09:08;1070.72;;;328.05;;
5774;SDS011;2913;51.120;6.772;2023-08-06T00:11:34;1067.25;;;326.08;;
5774;SDS011;2913;51.120;6.772;2023-08-06T00:13:59;1013.08;;;308.85;;
5774;SDS011;2913;51.120;6.772;2023-08-06T00:16:25;1105.63;;;338.98;;
5774;SDS011;2913;51.120;6.772;2023-08-06T00:18:53;1050.63;;;319.42;;
5774;SDS011;2913;51.120;6.772;2023-08-06T00:21:18;1021.88;;;310.38;;
5774;SDS011;2913;51.120;6.772;2023-08-06T00:23:46;921.30;;;278.50;;
5774;SDS011;2913;51.120;6.772;2023-08-06T00:26:12;988.88;;;300.50;;
5774;SDS011;2913;51.120;6.772;2023-08-06T00:28:37;945.80;;;287.95;;
5774;SDS011;2913;51.120;6.772;2023-08-06T00:31:08;925.80;;;281.45;;
5774;SDS011;2913;51.120;6.772;2023-08-06T00:33:33;946.60;;;288.67;;
5774;SDS011;2913;51.120;6.772;2023-08-06T00:35:59;971.47;;;294.65;;
5774;SDS011;2913;51.120;6.772;2023-08-06T00:38:27;952.50;;;290.48;;
5774;SDS011;2913;51.120;6.772;2023-08-06T00:40:52;1052.82;;;321.17;;
5774;SDS011;2913;51.120;6.772;2023-08-06T00:43:24;981.15;;;301.02;;
5774;SDS011;2913;51.120;6.772;2023-08-06T00:45:49;1078.63;;;329.70;;
5774;SDS011;2913;51.120;6.772;2023-08-06T00:48:15;1063.85;;;323.45;;
5774;SDS011;2913;51.120;6.772;2023-08-06T00:50:41;1126.95;;;344.38;;
5774;SDS011;2913;51.120;6.772;2023-08-06T00:53:09;1092.75;;;332.42;;
5774;SDS011;2913;51.120;6.772;2023-08-06T00:55:35;582.30;;;179.40;;
5774;SDS011;2913;51.120;6.772;2023-08-06T00:58:01;855.53;;;261.95;;
5774;SDS011;2913;51.120;6.772;2023-08-06T01:00:27;58.53;;;16.98;;
5774;SDS011;2913;51.120;6.772;2023-08-06T01:02:53;820.00;;;250.60;;
5774;SDS011;2913;51.120;6.772;2023-08-06T01:05:20;865.15;;;263.08;;
5774;SDS011;2913;51.120;6.772;2023-08-06T01:16:05;774.60;;;234.00;;
5774;SDS011;2913;51.120;6.772;2023-08-06T01:18:35;823.85;;;249.93;;
5774;SDS011;2913;51.120;6.772;2023-08-06T01:21:02;798.20;;;242.02;;
5774;SDS011;2913;51.120;6.772;2023-08-06T01:23:28;844.10;;;254.00;;
5774;SDS011;2913;51.120;6.772;2023-08-06T01:28:56;1032.50;;;314.67;;
5774;SDS011;2913;51.120;6.772;2023-08-06T01:31:35;1002.72;;;307.30;;
5774;SDS011;2913;51.120;6.772;2023-08-06T01:34:03;960.25;;;292.98;;
5774;SDS011;2913;51.120;6.772;2023-08-06T01:36:42;884.80;;;270.08;;
5774;SDS011;2913;51.120;6.772;2023-08-06T01:39:11;933.15;;;285.42;;
5774;SDS011;2913;51.120;6.772;2023-08-06T01:41:36;962.80;;;294.90;;
5774;SDS011;2913;51.120;6.772;2023-08-06T01:44:04;939.88;;;287.05;;
5774;SDS011;2913;51.120;6.772;2023-08-06T01:46:30;872.72;;;264.50;;
5774;SDS011;2913;51.120;6.772;2023-08-06T01:48:56;890.38;;;273.52;;
5774;SDS011;2913;51.120;6.772;2023-08-06T01:51:24;886.95;;;272.70;;
5774;SDS011;2913;51.120;6.772;2023-08-06T01:53:49;947.88;;;292.10;;
5774;SDS011;2913;51.120;6.772;2023-08-06T01:56:15;962.55;;;297.73;;
5774;SDS011;2913;51.120;6.772;2023-08-06T01:58:40;966.72;;;297.58;;
5774;SDS011;2913;51.120;6.772;2023-08-06T02:01:06;913.58;;;285.98;;
5774;SDS011;2913;51.120;6.772;2023-08-06T02:03:32;957.17;;;300.02;;
5774;SDS011;2913;51.120;6.772;2023-08-06T02:05:57;487.80;;;149.45;;
5774;SDS011;2913;51.120;6.772;2023-08-06T02:08:23;499.48;;;154.38;;
5774;SDS011;2913;51.120;6.772;2023-08-06T02:10:51;574.20;;;177.18;;
5774;SDS011;2913;51.120;6.772;2023-08-06T02:13:17;820.03;;;253.25;;
5774;SDS011;2913;51.120;6.772;2023-08-06T02:15:45;991.72;;;305.77;;
5774;SDS011;2913;51.120;6.772;2023-08-06T02:18:14;1022.80;;;313.52;;
5774;SDS011;2913;51.120;6.772;2023-08-06T02:20:40;1063.30;;;325.75;;
5774;SDS011;2913;51.120;6.772;2023-08-06T02:23:06;697.53;;;217.05;;
5774;SDS011;2913;51.120;6.772;2023-08-06T02:25:32;679.50;;;210.05;;
5774;SDS011;2913;51.120;6.772;2023-08-06T02:27:57;685.22;;;214.23;;
5774;SDS011;2913;51.120;6.772;2023-08-06T02:30:23;705.70;;;220.48;;
5774;SDS011;2913;51.120;6.772;2023-08-06T02:32:52;754.00;;;233.82;;
5774;SDS011;2913;51.120;6.772;2023-08-06T02:35:19;771.65;;;239.35;;
5774;SDS011;2913;51.120;6.772;2023-08-06T02:37:45;706.92;;;218.98;;
5774;SDS011;2913;51.120;6.772;2023-08-06T02:40:13;642.58;;;199.55;;
5774;SDS011;2913;51.120;6.772;2023-08-06T02:42:39;656.50;;;204.95;;
5774;SDS011;2913;51.120;6.772;2023-08-06T02:45:04;635.65;;;197.85;;
5774;SDS011;2913;51.120;6.772;2023-08-06T02:47:33;640.88;;;199.43;;
5774;SDS011;2913;51.120;6.772;2023-08-06T02:49:58;638.65;;;199.43;;
5774;SDS011;2913;51.120;6.772;2023-08-06T02:52:24;685.45;;;211.85;;
5774;SDS011;2913;51.120;6.772;2023-08-06T02:54:50;669.08;;;207.48;;
5774;SDS011;2913;51.120;6.772;2023-08-06T02:57:16;647.13;;;201.73;;
5774;SDS011;2913;51.120;6.772;2023-08-06T02:59:41;672.17;;;210.07;;
5774;SDS011;2913;51.120;6.772;2023-08-06T03:02:07;711.38;;;221.68;;
5774;SDS011;2913;51.120;6.772;2023-08-06T03:04:35;739.60;;;230.48;;
5774;SDS011;2913;51.120;6.772;2023-08-06T03:07:01;759.53;;;236.60;;
5774;SDS011;2913;51.120;6.772;2023-08-06T03:09:26;965.38;;;298.02;;
5774;SDS011;2913;51.120;6.772;2023-08-06T03:11:52;918.25;;;286.67;;
5774;SDS011;2913;51.120;6.772;2023-08-06T03:14:19;938.35;;;291.00;;
5774;SDS011;2913;51.120;6.772;2023-08-06T03:16:45;756.28;;;234.13;;
5774;SDS011;2913;51.120;6.772;2023-08-06T03:19:10;778.63;;;240.85;;
5774;SDS011;2913;51.120;6.772;2023-08-06T03:21:36;17.75;;;6.25;;
5774;SDS011;2913;51.120;6.772;2023-08-06T03:24:04;15.70;;;6.65;;
5774;SDS011;2913;51.120;6.772;2023-08-06T03:26:32;22.25;;;6.70;;
5774;SDS011;2913;51.120;6.772;2023-08-06T03:29:00;508.77;;;161.63;;
5774;SDS011;2913;51.120;6.772;2023-08-06T03:31:25;770.15;;;237.90;;
5774;SDS011;2913;51.120;6.772;2023-08-06T03:33:51;541.40;;;171.65;;
5774;SDS011;2913;51.120;6.772;2023-08-06T03:36:19;655.35;;;202.82;;
5774;SDS011;2913;51.120;6.772;2023-08-06T03:38:44;634.03;;;197.48;;
5774;SDS011;2913;51.120;6.772;2023-08-06T03:41:13;651.03;;;202.75;;
5774;SDS011;2913;51.120;6.772;2023-08-06T03:43:39;648.08;;;202.25;;
5774;SDS011;2913;51.120;6.772;2023-08-06T03:46:06;687.55;;;214.55;;
5774;SDS011;2913;51.120;6.772;2023-08-06T03:48:34;676.97;;;211.00;;
5774;SDS011;2913;51.120;6.772;2023-08-06T03:51:02;734.17;;;228.18;;
5774;SDS011;2913;51.120;6.772;2023-08-06T03:53:28;791.05;;;245.82;;
5774;SDS011;2913;51.120;6.772;2023-08-06T03:55:53;789.13;;;244.45;;
5774;SDS011;2913;51.120;6.772;2023-08-06T03:58:27;848.08;;;262.67;;
5774;SDS011;2913;51.120;6.772;2023-08-06T04:01:02;813.78;;;255.73;;
5774;SDS011;2913;51.120;6.772;2023-08-06T04:03:32;17.73;;;5.25;;
5774;SDS011;2913;51.120;6.772;2023-08-06T04:05:58;575.08;;;181.20;;
5774;SDS011;2913;51.120;6.772;2023-08-06T04:08:23;42.00;;;12.95;;
5774;SDS011;2913;51.120;6.772;2023-08-06T04:10:52;765.22;;;238.65;;
5774;SDS011;2913;51.120;6.772;2023-08-06T04:13:20;788.72;;;244.43;;
5774;SDS011;2913;51.120;6.772;2023-08-06T04:15:46;12.15;;;5.05;;
5774;SDS011;2913;51.120;6.772;2023-08-06T04:18:12;12.82;;;5.22;;
5774;SDS011;2913;51.120;6.772;2023-08-06T04:20:47;14.82;;;5.45;;
5774;SDS011;2913;51.120;6.772;2023-08-06T04:23:17;11.55;;;5.32;;
5774;SDS011;2913;51.120;6.772;2023-08-06T04:25:43;15.95;;;6.35;;
5774;SDS011;2913;51.120;6.772;2023-08-06T04:28:08;26.95;;;6.60;;
5774;SDS011;2913;51.120;6.772;2023-08-06T04:30:37;552.85;;;173.07;;
5774;SDS011;2913;51.120;6.772;2023-08-06T04:33:03;786.03;;;244.02;;
5774;SDS011;2913;51.120;6.772;2023-08-06T04:35:28;793.72;;;246.82;;
5774;SDS011;2913;51.120;6.772;2023-08-06T04:37:54;825.47;;;255.35;;
5774;SDS011;2913;51.120;6.772;2023-08-06T04:40:24;769.53;;;239.00;;
5774;SDS011;2913;51.120;6.772;2023-08-06T04:42:53;830.53;;;258.95;;
5774;SDS011;2913;51.120;6.772;2023-08-06T04:45:21;819.92;;;255.02;;
5774;SDS011;2913;51.120;6.772;2023-08-06T04:47:49;824.83;;;257.40;;
5774;SDS011;2913;51.120;6.772;2023-08-06T04:50:14;855.28;;;267.17;;
5774;SDS011;2913;51.120;6.772;2023-08-06T04:52:42;783.78;;;245.85;;
5774;SDS011;2913;51.120;6.772;2023-08-06T04:55:08;706.20;;;221.82;;
5774;SDS011;2913;51.120;6.772;2023-08-06T04:57:33;712.08;;;224.05;;
5774;SDS011;2913;51.120;6.772;2023-08-06T04:59:59;746.47;;;234.75;;
5774;SDS011;2913;51.120;6.772;2023-08-06T05:02:25;708.33;;;221.93;;
5774;SDS011;2913;51.120;6.772;2023-08-06T05:04:50;790.17;;;247.30;;
5774;SDS011;2913;51.120;6.772;2023-08-06T05:07:16;658.58;;;206.98;;
5774;SDS011;2913;51.120;6.772;2023-08-06T05:09:42;685.53;;;214.75;;
5774;SDS011;2913;51.120;6.772;2023-08-06T05:12:07;14.43;;;4.95;;
5774;SDS011;2913;51.120;6.772;2023-08-06T05:14:33;626.05;;;193.52;;
5774;SDS011;2913;51.120;6.772;2023-08-06T05:16:58;18.13;;;5.15;;
5774;SDS011;2913;51.120;6.772;2023-08-06T05:19:24;17.65;;;4.60;;
5774;SDS011;2913;51.120;6.772;2023-08-06T05:21:49;16.15;;;5.30;;
5774;SDS011;2913;51.120;6.772;2023-08-06T05:24:15;17.45;;;5.70;;
5774;SDS011;2913;51.120;6.772;2023-08-06T05:26:43;13.85;;;5.55;;
5774;SDS011;2913;51.120;6.772;2023-08-06T05:29:11;13.73;;;5.90;;
5774;SDS011;2913;51.120;6.772;2023-08-06T05:31:37;16.48;;;6.25;;
5774;SDS011;2913;51.120;6.772;2023-08-06T05:34:02;29.98;;;6.70;;
5774;SDS011;2913;51.120;6.772;2023-08-06T05:36:28;586.05;;;185.07;;
5774;SDS011;2913;51.120;6.772;2023-08-06T05:38:56;13.57;;;5.75;;
5774;SDS011;2913;51.120;6.772;2023-08-06T05:41:22;18.65;;;5.82;;
5774;SDS011;2913;51.120;6.772;2023-08-06T05:43:47;14.45;;;6.13;;
5774;SDS011;2913;51.120;6.772;2023-08-06T05:46:13;15.07;;;5.60;;
5774;SDS011;2913;51.120;6.772;2023-08-06T05:48:43;14.55;;;5.50;;
5774;SDS011;2913;51.120;6.772;2023-08-06T05:51:09;19.25;;;5.43;;
5774;SDS011;2913;51.120;6.772;2023-08-06T05:53:37;11.15;;;4.35;;
5774;SDS011;2913;51.120;6.772;2023-08-06T05:56:03;12.80;;;5.25;;
5774;SDS011;2913;51.120;6.772;2023-08-06T05:58:29;14.48;;;4.50;;
5774;SDS011;2913;51.120;6.772;2023-08-06T06:00:55;16.63;;;5.13;;
5774;SDS011;2913;51.120;6.772;2023-08-06T06:03:24;15.80;;;4.93;;
5774;SDS011;2913;51.120;6.772;2023-08-06T06:05:52;15.80;;;4.40;;
5774;SDS011;2913;51.120;6.772;2023-08-06T06:08:19;13.20;;;5.03;;
5774;SDS011;2913;51.120;6.772;2023-08-06T06:10:45;12.35;;;5.20;;
5774;SDS011;2913;51.120;6.772;2023-08-06T06:13:13;17.08;;;5.60;;
5774;SDS011;2913;51.120;6.772;2023-08-06T06:15:39;23.25;;;6.68;;
5774;SDS011;2913;51.120;6.772;2023-08-06T06:18:04;16.98;;;6.15;;
5774;SDS011;2913;51.120;6.772;2023-08-06T06:20:31;18.10;;;5.88;;
5774;SDS011;2913;51.120;6.772;2023-08-06T06:22:57;12.63;;;5.38;;
5774;SDS011;2913;51.120;6.772;2023-08-06T06:25:25;25.15;;;7.13;;
5774;SDS011;2913;51.120;6.772;2023-08-06T06:27:53;21.63;;;7.10;;
5774;SDS011;2913;51.120;6.772;2023-08-06T06:30:23;22.00;;;7.28;;
5774;SDS011;2913;51.120;6.772;2023-08-06T06:32:49;22.00;;;7.78;;
5774;SDS011;2913;51.120;6.772;2023-08-06T06:35:14;16.75;;;6.68;;
5774;SDS011;2913;51.120;6.772;2023-08-06T06:37:40;32.65;;;7.63;;
5774;SDS011;2913;51.120;6.772;2023-08-06T06:40:09;21.30;;;8.02;;
5774;SDS011;2913;51.120;6.772;2023-08-06T06:42:35;21.90;;;8.18;;
5774;SDS011;2913;51.120;6.772;2023-08-06T06:45:00;30.05;;;8.73;;
5774;SDS011;2913;51.120;6.772;2023-08-06T06:47:28;31.58;;;8.00;;
5774;SDS011;2913;51.120;6.772;2023-08-06T06:49:54;22.75;;;7.25;;
5774;SDS011;2913;51.120;6.772;2023-08-06T06:52:19;22.60;;;7.55;;
5774;SDS011;2913;51.120;6.772;2023-08-06T06:54:47;17.52;;;7.60;;
5774;SDS011;2913;51.120;6.772;2023-08-06T06:57:13;20.38;;;7.68;;
5774;SDS011;2913;51.120;6.772;2023-08-06T06:59:41;15.75;;;7.15;;
5774;SDS011;2913;51.120;6.772;2023-08-06T07:02:09;22.23;;;7.28;;
5774;SDS011;2913;51.120;6.772;2023-08-06T07:04:37;23.30;;;7.63;;
5774;SDS011;2913;51.120;6.772;2023-08-06T07:07:03;15.45;;;6.78;;
5774;SDS011;2913;51.120;6.772;2023-08-06T07:09:31;41.72;;;8.80;;
5774;SDS011;2913;51.120;6.772;2023-08-06T07:11:56;22.15;;;7.80;;
5774;SDS011;2913;51.120;6.772;2023-08-06T07:14:24;24.77;;;8.52;;
5774;SDS011;2913;51.120;6.772;2023-08-06T07:16:50;24.75;;;8.95;;
5774;SDS011;2913;51.120;6.772;2023-08-06T07:19:16;26.67;;;10.30;;
5774;SDS011;2913;51.120;6.772;2023-08-06T07:21:41;20.35;;;10.10;;
5774;SDS011;2913;51.120;6.772;2023-08-06T07:24:09;27.00;;;9.45;;
5774;SDS011;2913;51.120;6.772;2023-08-06T07:26:35;30.63;;;10.75;;
5774;SDS011;2913;51.120;6.772;2023-08-06T07:29:00;25.30;;;10.07;;
5774;SDS011;2913;51.120;6.772;2023-08-06T07:31:26;25.90;;;10.05;;
5774;SDS011;2913;51.120;6.772;2023-08-06T07:33:52;27.27;;;11.20;;
5774;SDS011;2913;51.120;6.772;2023-08-06T07:36:17;27.65;;;11.13;;
5774;SDS011;2913;51.120;6.772;2023-08-06T07:38:45;27.15;;;11.15;;
5774;SDS011;2913;51.120;6.772;2023-08-06T07:41:11;24.95;;;11.30;;
5774;SDS011;2913;51.120;6.772;2023-08-06T07:43:37;24.25;;;10.80;;
5774;SDS011;2913;51.120;6.772;2023-08-06T07:46:02;26.73;;;11.85;;
5774;SDS011;2913;51.120;6.772;2023-08-06T07:48:31;23.58;;;11.15;;
5774;SDS011;2913;51.120;6.772;2023-08-06T07:50:56;27.30;;;11.13;;
5774;SDS011;2913;51.120;6.772;2023-08-06T07:53:23;27.13;;;10.80;;
5774;SDS011;2913;51.120;6.772;2023-08-06T07:55:52;28.75;;;10.20;;
5774;SDS011;2913;51.120;6.772;2023-08-06T07:58:20;22.10;;;8.52;;
5774;SDS011;2913;51.120;6.772;2023-08-06T08:00:49;21.83;;;8.57;;
5774;SDS011;2913;51.120;6.772;2023-08-06T08:03:15;16.13;;;8.55;;
5774;SDS011;2913;51.120;6.772;2023-08-06T08:05:42;16.48;;;7.55;;
5774;SDS011;2913;51.120;6.772;2023-08-06T08:08:08;18.33;;;8.57;;
5774;SDS011;2913;51.120;6.772;2023-08-06T08:10:34;22.90;;;8.50;;
5774;SDS011;2913;51.120;6.772;2023-08-06T08:13:02;19.80;;;9.75;;
5774;SDS011;2913;51.120;6.772;2023-08-06T08:15:31;23.98;;;10.13;;
5774;SDS011;2913;51.120;6.772;2023-08-06T08:17:58;26.70;;;11.68;;
5774;SDS011;2913;51.120;6.772;2023-08-06T08:20:26;28.52;;;11.43;;
5774;SDS011;2913;51.120;6.772;2023-08-06T08:22:57;30.70;;;12.80;;
5774;SDS011;2913;51.120;6.772;2023-08-06T08:25:28;33.50;;;13.68;;
5774;SDS011;2913;51.120;6.772;2023-08-06T08:28:04;33.13;;;13.35;;
5774;SDS011;2913;51.120;6.772;2023-08-06T08:30:31;29.08;;;11.80;;
5774;SDS011;2913;51.120;6.772;2023-08-06T08:32:57;34.95;;;11.45;;
5774;SDS011;2913;51.120;6.772;2023-08-06T08:35:30;22.00;;;10.60;;
5774;SDS011;2913;51.120;6.772;2023-08-06T08:37:56;23.83;;;9.88;;
5774;SDS011;2913;51.120;6.772;2023-08-06T08:40:24;20.33;;;8.40;;
5774;SDS011;2913;51.120;6.772;2023-08-06T08:42:58;19.77;;;8.93;;
5774;SDS011;2913;51.120;6.772;2023-08-06T08:45:26;19.42;;;9.07;;
5774;SDS011;2913;51.120;6.772;2023-08-06T08:47:54;18.27;;;9.50;;
5774;SDS011;2913;51.120;6.772;2023-08-06T08:50:22;17.95;;;9.10;;
5774;SDS011;2913;51.120;6.772;2023-08-06T08:52:48;14.75;;;7.97;;
5774;SDS011;2913;51.120;6.772;2023-08-06T08:55:15;17.25;;;8.43;;
5774;SDS011;2913;51.120;6.772;2023-08-06T08:57:41;17.52;;;7.05;;
5774;SDS011;2913;51.120;6.772;2023-08-06T09:00:08;26.23;;;7.97;;
5774;SDS011;2913;51.120;6.772;2023-08-06T09:02:33;13.98;;;7.45;;
5774;SDS011;2913;51.120;6.772;2023-08-06T09:05:01;12.10;;;6.72;;
5774;SDS011;2913;51.120;6.772;2023-08-06T09:07:29;16.08;;;6.30;;
5774;SDS011;2913;51.120;6.772;2023-08-06T09:10:02;927.92;;;317.30;;
5774;SDS011;2913;51.120;6.772;2023-08-06T09:12:29;1226.82;;;414.40;;
5774;SDS011;2913;51.120;6.772;2023-08-06T09:14:58;15.05;;;7.00;;
5774;SDS011;2913;51.120;6.772;2023-08-06T09:17:23;13.15;;;6.93;;
5774;SDS011;2913;51.120;6.772;2023-08-06T09:19:52;14.45;;;6.78;;
5774;SDS011;2913;51.120;6.772;2023-08-06T09:22:19;17.58;;;7.32;;
5774;SDS011;2913;51.120;6.772;2023-08-06T09:24:47;18.08;;;7.68;;
5774;SDS011;2913;51.120;6.772;2023-08-06T09:27:13;18.10;;;6.97;;
5774;SDS011;2913;51.120;6.772;2023-08-06T09:29:43;17.08;;;7.50;;
5774;SDS011;2913;51.120;6.772;2023-08-06T09:32:10;14.07;;;7.00;;
5774;SDS011;2913;51.120;6.772;2023-08-06T09:34:39;15.27;;;6.55;;
5774;SDS011;2913;51.120;6.772;2023-08-06T09:37:10;14.50;;;5.95;;
5774;SDS011;2913;51.120;6.772;2023-08-06T09:39:36;13.35;;;5.28;;
5774;SDS011;2913;51.120;6.772;2023-08-06T09:42:05;12.57;;;4.45;;
5774;SDS011;2913;51.120;6.772;2023-08-06T09:44:33;18.00;;;3.13;;
5774;SDS011;2913;51.120;6.772;2023-08-06T09:47:03;14.93;;;3.38;;
5774;SDS011;2913;51.120;6.772;2023-08-06T09:51:57;7.28;;;2.33;;
5774;SDS011;2913;51.120;6.772;2023-08-06T09:54:26;9.68;;;3.00;;
5774;SDS011;2913;51.120;6.772;2023-08-06T09:56:57;11.10;;;2.95;;
5774;SDS011;2913;51.120;6.772;2023-08-06T09:59:25;5.68;;;2.40;;
5774;SDS011;2913;51.120;6.772;2023-08-06T10:01:51;6.55;;;2.53;;
5774;SDS011;2913;51.120;6.772;2023-08-06T10:04:20;6.28;;;2.20;;
5774;SDS011;2913;51.120;6.772;2023-08-06T10:06:46;11.00;;;3.08;;
5774;SDS011;2913;51.120;6.772;2023-08-06T10:09:15;7.07;;;2.03;;
5774;SDS011;2913;51.120;6.772;2023-08-06T10:11:41;6.30;;;1.80;;
5774;SDS011;2913;51.120;6.772;2023-08-06T10:14:14;7.17;;;2.00;;
5774;SDS011;2913;51.120;6.772;2023-08-06T10:16:44;4.63;;;2.20;;
5774;SDS011;2913;51.120;6.772;2023-08-06T10:19:14;14.43;;;2.45;;
5774;SDS011;2913;51.120;6.772;2023-08-06T10:21:42;10.18;;;3.20;;
5774;SDS011;2913;51.120;6.772;2023-08-06T10:24:46;5.05;;;2.80;;
5774;SDS011;2913;51.120;6.772;2023-08-06T10:27:13;7.57;;;3.90;;
5774;SDS011;2913;51.120;6.772;2023-08-06T10:29:44;8.73;;;4.18;;
5774;SDS011;2913;51.120;6.772;2023-08-06T10:32:09;8.55;;;3.67;;
5774;SDS011;2913;51.120;6.772;2023-08-06T10:34:55;7.15;;;3.53;;
5774;SDS011;2913;51.120;6.772;2023-08-06T10:37:22;5.20;;;2.63;;
5774;SDS011;2913;51.120;6.772;2023-08-06T10:39:51;5.82;;;2.35;;
5774;SDS011;2913;51.120;6.772;2023-08-06T10:42:21;3.75;;;2.40;;
5774;SDS011;2913;51.120;6.772;2023-08-06T10:47:49;5.82;;;2.13;;
5774;SDS011;2913;51.120;6.772;2023-08-06T10:50:15;4.32;;;1.80;;
5774;SDS011;2913;51.120;6.772;2023-08-06T10:52:45;6.38;;;2.00;;
5774;SDS011;2913;51.120;6.772;2023-08-06T10:55:11;4.75;;;1.73;;
5774;SDS011;2913;51.120;6.772;2023-08-06T10:57:37;4.75;;;1.80;;
5774;SDS011;2913;51.120;6.772;2023-08-06T11:00:06;7.03;;;1.85;;
5774;SDS011;2913;51.120;6.772;2023-08-06T11:02:36;8.27;;;2.38;;
5774;SDS011;2913;51.120;6.772;2023-08-06T11:05:05;7.63;;;2.17;;
5774;SDS011;2913;51.120;6.772;2023-08-06T11:07:37;10.10;;;2.25;;
5774;SDS011;2913;51.120;6.772;2023-08-06T11:10:11;7.80;;;2.45;;
5774;SDS011;2913;51.120;6.772;2023-08-06T11:12:37;6.05;;;2.70;;
5774;SDS011;2913;51.120;6.772;2023-08-06T11:15:03;8.35;;;3.33;;
5774;SDS011;2913;51.120;6.772;2023-08-06T11:17:31;10.63;;;3.65;;
5774;SDS011;2913;51.120;6.772;2023-08-06T11:20:03;10.68;;;4.05;;
5774;SDS011;2913;51.120;6.772;2023-08-06T11:22:32;13.80;;;3.83;;
5774;SDS011;2913;51.120;6.772;2023-08-06T11:24:58;8.63;;;3.88;;
5774;SDS011;2913;51.120;6.772;2023-08-06T11:27:26;11.10;;;4.22;;
5774;SDS011;2913;51.120;6.772;2023-08-06T11:29:54;14.23;;;4.78;;
5774;SDS011;2913;51.120;6.772;2023-08-06T11:32:20;18.05;;;5.25;;
5774;SDS011;2913;51.120;6.772;2023-08-06T11:34:48;16.10;;;4.90;;
5774;SDS011;2913;51.120;6.772;2023-08-06T11:37:18;20.50;;;5.38;;
5774;SDS011;2913;51.120;6.772;2023-08-06T11:39:47;15.27;;;5.13;;
5774;SDS011;2913;51.120;6.772;2023-08-06T11:42:14;17.80;;;5.57;;
5774;SDS011;2913;51.120;6.772;2023-08-06T11:44:40;15.57;;;4.43;;
5774;SDS011;2913;51.120;6.772;2023-08-06T11:47:16;18.27;;;5.13;;
5774;SDS011;2913;51.120;6.772;2023-08-06T11:49:47;15.05;;;3.70;;
5774;SDS011;2913;51.120;6.772;2023-08-06T11:52:17;17.25;;;3.83;;
5774;SDS011;2913;51.120;6.772;2023-08-06T11:54:59;12.38;;;3.90;;
5774;SDS011;2913;51.120;6.772;2023-08-06T11:57:32;10.45;;;3.70;;
5774;SDS011;2913;51.120;6.772;2023-08-06T12:00:04;12.07;;;3.42;;
5774;SDS011;2913;51.120;6.772;2023-08-06T12:02:32;19.85;;;3.47;;
5774;SDS011;2913;51.120;6.772;2023-08-06T12:05:12;13.95;;;4.30;;
5774;SDS011;2913;51.120;6.772;2023-08-06T12:07:52;10.70;;;3.40;;
5774;SDS011;2913;51.120;6.772;2023-08-06T12:10:21;15.75;;;3.35;;
5774;SDS011;2913;51.120;6.772;2023-08-06T12:12:48;12.93;;;3.42;;
5774;SDS011;2913;51.120;6.772;2023-08-06T12:15:15;9.32;;;3.08;;
5774;SDS011;2913;51.120;6.772;2023-08-06T12:17:41;16.70;;;4.00;;
5774;SDS011;2913;51.120;6.772;2023-08-06T12:20:07;10.90;;;3.72;;
5774;SDS011;2913;51.120;6.772;2023-08-06T12:22:34;10.73;;;3.58;;
5774;SDS011;2913;51.120;6.772;2023-08-06T12:25:03;8.88;;;3.75;;
5774;SDS011;2913;51.120;6.772;2023-08-06T12:27:33;13.32;;;3.78;;
5774;SDS011;2913;51.120;6.772;2023-08-06T12:30:03;13.98;;;3.50;;
5774;SDS011;2913;51.120;6.772;2023-08-06T12:32:32;20.38;;;3.97;;
5774;SDS011;2913;51.120;6.772;2023-08-06T12:35:01;17.55;;;4.10;;
5774;SDS011;2913;51.120;6.772;2023-08-06T12:37:27;18.90;;;3.92;;
5774;SDS011;2913;51.120;6.772;2023-08-06T12:39:53;9.05;;;3.47;;
5774;SDS011;2913;51.120;6.772;2023-08-06T12:42:21;14.52;;;4.28;;
5774;SDS011;2913;51.120;6.772;2023-08-06T12:44:49;11.80;;;3.78;;
5774;SDS011;2913;51.120;6.772;2023-08-06T12:47:15;16.48;;;3.53;;
5774;SDS011;2913;51.120;6.772;2023-08-06T12:49:44;9.05;;;3.55;;
5774;SDS011;2913;51.120;6.772;2023-08-06T12:52:15;9.73;;;2.45;;
5774;SDS011;2913;51.120;6.772;2023-08-06T12:54:41;7.57;;;3.20;;
5774;SDS011;2913;51.120;6.772;2023-08-06T12:57:07;15.25;;;3.67;;
5774;SDS011;2913;51.120;6.772;2023-08-06T12:59:33;21.45;;;4.30;;
5774;SDS011;2913;51.120;6.772;2023-08-06T13:01:59;17.42;;;2.95;;
5774;SDS011;2913;51.120;6.772;2023-08-06T13:04:25;10.57;;;3.30;;
5774;SDS011;2913;51.120;6.772;2023-08-06T13:06:51;11.23;;;3.45;;
5774;SDS011;2913;51.120;6.772;2023-08-06T13:09:18;12.25;;;3.60;;
5774;SDS011;2913;51.120;6.772;2023-08-06T13:11:44;14.35;;;2.95;;
5774;SDS011;2913;51.120;6.772;2023-08-06T13:14:11;8.02;;;2.67;;
5774;SDS011;2913;51.120;6.772;2023-08-06T13:16:41;7.32;;;2.63;;
5774;SDS011;2913;51.120;6.772;2023-08-06T13:19:07;8.65;;;3.10;;
5774;SDS011;2913;51.120;6.772;2023-08-06T13:21:35;14.05;;;3.42;;
5774;SDS011;2913;51.120;6.772;2023-08-06T13:24:16;11.23;;;4.40;;
5774;SDS011;2913;51.120;6.772;2023-08-06T13:26:42;17.05;;;3.97;;
5774;SDS011;2913;51.120;6.772;2023-08-06T13:29:08;13.32;;;4.07;;
5774;SDS011;2913;51.120;6.772;2023-08-06T13:31:36;16.33;;;4.18;;
5774;SDS011;2913;51.120;6.772;2023-08-06T13:34:02;17.25;;;4.20;;
5774;SDS011;2913;51.120;6.772;2023-08-06T13:36:30;12.98;;;4.13;;
5774;SDS011;2913;51.120;6.772;2023-08-06T13:39:04;16.33;;;4.38;;
5774;SDS011;2913;51.120;6.772;2023-08-06T13:41:31;16.35;;;4.68;;
5774;SDS011;2913;51.120;6.772;2023-08-06T13:43:59;21.33;;;3.88;;
5774;SDS011;2913;51.120;6.772;2023-08-06T13:46:33;12.70;;;4.38;;
5774;SDS011;2913;51.120;6.772;2023-08-06T13:48:58;13.70;;;4.38;;
5774;SDS011;2913;51.120;6.772;2023-08-06T13:51:24;16.80;;;4.22;;
5774;SDS011;2913;51.120;6.772;2023-08-06T13:53:50;16.75;;;4.20;;
5774;SDS011;2913;51.120;6.772;2023-08-06T13:56:17;17.55;;;4.85;;
5774;SDS011;2913;51.120;6.772;2023-08-06T13:58:43;17.67;;;4.63;;
5774;SDS011;2913;51.120;6.772;2023-08-06T14:01:09;17.20;;;4.57;;
5774;SDS011;2913;51.120;6.772;2023-08-06T14:03:40;22.77;;;5.00;;
5774;SDS011;2913;51.120;6.772;2023-08-06T14:06:07;17.80;;;4.55;;
5774;SDS011;2913;51.120;6.772;2023-08-06T14:08:35;14.27;;;5.57;;
5774;SDS011;2913;51.120;6.772;2023-08-06T14:11:00;23.38;;;4.50;;
5774;SDS011;2913;51.120;6.772;2023-08-06T14:13:26;13.48;;;4.28;;
5774;SDS011;2913;51.120;6.772;2023-08-06T14:15:54;21.27;;;5.13;;
5774;SDS011;2913;51.120;6.772;2023-08-06T14:18:23;13.68;;;4.78;;
5774;SDS011;2913;51.120;6.772;2023-08-06T14:20:48;21.25;;;4.90;;
5774;SDS011;2913;51.120;6.772;2023-08-06T14:23:16;20.08;;;4.70;;
5774;SDS011;2913;51.120;6.772;2023-08-06T14:25:41;15.45;;;5.13;;
5774;SDS011;2913;51.120;6.772;2023-08-06T14:28:10;20.90;;;5.28;;
5774;SDS011;2913;51.120;6.772;2023-08-06T14:30:35;20.15;;;5.65;;
5774;SDS011;2913;51.120;6.772;2023-08-06T14:33:01;16.60;;;5.20;;
5774;SDS011;2913;51.120;6.772;2023-08-06T14:35:30;20.60;;;4.63;;
5774;SDS011;2913;51.120;6.772;2023-08-06T14:37:56;13.13;;;3.78;;
5774;SDS011;2913;51.120;6.772;2023-08-06T14:40:24;12.65;;;3.78;;
5774;SDS011;2913;51.120;6.772;2023-08-06T14:42:58;13.48;;;4.05;;
5774;SDS011;2913;51.120;6.772;2023-08-06T14:45:24;15.10;;;4.65;;
5774;SDS011;2913;51.120;6.772;2023-08-06T14:47:54;15.70;;;4.18;;
5774;SDS011;2913;51.120;6.772;2023-08-06T14:50:20;22.77;;;4.95;;
5774;SDS011;2913;51.120;6.772;2023-08-06T14:52:50;12.43;;;3.80;;
5774;SDS011;2913;51.120;6.772;2023-08-06T14:55:23;17.30;;;4.85;;
5774;SDS011;2913;51.120;6.772;2023-08-06T14:57:54;12.20;;;4.05;;
5774;SDS011;2913;51.120;6.772;2023-08-06T15:00:22;13.55;;;4.53;;
5774;SDS011;2913;51.120;6.772;2023-08-06T15:02:50;19.67;;;4.95;;
5774;SDS011;2913;51.120;6.772;2023-08-06T15:05:15;13.85;;;4.88;;
5774;SDS011;2913;51.120;6.772;2023-08-06T15:07:43;23.67;;;4.63;;